Time;durP1;ratioP1;P1;durP2;ratioP2;P2;SDS_P1;SDS_P2;PMS_P1;PMS_P2;Temp;Humidity;BMP_temperature;BMP_pressure;BME280_temperature;BME280_humidity;BME280_pressure;Samples;Min_cycle;Max_cycle;Signal;HPM_P1;HPM_P2
2023/07/23 00:00:32;;;;;;;19.63;16.77;;;24.10;89.50;;;;;;4996823;28;20035;-84
2023/07/23 00:02:58;;;;;;;15.73;13.97;;;24.10;89.50;;;;;;4985314;28;20426;-84
2023/07/23 00:05:24;;;;;;;18.83;14.70;;;24.10;89.50;;;;;;4990537;28;20335;-84
2023/07/23 00:07:54;;;;;;;21.65;15.68;;;24.10;89.60;;;;;;4980916;28;20074;-85
2023/07/23 00:10:20;;;;;;;19.00;14.00;;;24.00;89.70;;;;;;4964663;28;20038;-83
2023/07/23 00:12:45;;;;;;;21.87;15.50;;;24.00;89.60;;;;;;4978339;28;20031;-83
2023/07/23 00:15:14;;;;;;;19.87;16.20;;;24.00;89.40;;;;;;4985913;28;20378;-84
2023/07/23 00:17:41;;;;;;;20.52;15.60;;;24.00;89.60;;;;;;4994072;28;20022;-84
2023/07/23 00:20:08;;;;;;;20.33;16.30;;;24.00;89.50;;;;;;4994169;28;20072;-85
2023/07/23 00:22:34;;;;;;;17.38;15.02;;;23.90;89.30;;;;;;4989795;28;20081;-83
2023/07/23 00:25:00;;;;;;;22.10;15.00;;;23.90;89.50;;;;;;4975479;28;20027;-83
2023/07/23 00:27:26;;;;;;;21.10;14.63;;;23.90;89.50;;;;;;4980190;28;20066;-83
2023/07/23 00:29:52;;;;;;;14.90;13.30;;;23.90;89.50;;;;;;4976581;28;20465;-83
2023/07/23 00:32:18;;;;;;;15.20;13.63;;;23.90;89.20;;;;;;4983551;28;20490;-84
2023/07/23 00:34:45;;;;;;;18.87;14.23;;;23.90;89.10;;;;;;4979801;28;20035;-83
2023/07/23 00:37:10;;;;;;;16.23;13.77;;;23.90;88.80;;;;;;4954998;29;20035;-83
2023/07/23 00:39:38;;;;;;;20.57;14.33;;;23.90;89.00;;;;;;4971522;28;20509;-83
2023/07/23 00:42:04;;;;;;;17.73;15.63;;;23.90;88.90;;;;;;4956268;28;20031;-83
2023/07/23 00:44:29;;;;;;;18.90;14.30;;;23.80;89.00;;;;;;4955108;29;20117;-83
2023/07/23 00:46:58;;;;;;;19.47;15.47;;;23.80;89.10;;;;;;4955165;28;20037;-84
2023/07/23 00:49:24;;;;;;;16.77;15.07;;;23.80;89.40;;;;;;4956322;28;20031;-84
2023/07/23 00:51:51;;;;;;;18.10;14.32;;;23.70;89.50;;;;;;4954928;29;20031;-83
2023/07/23 00:54:17;;;;;;;15.32;13.68;;;23.70;89.40;;;;;;4956341;28;20070;-83
2023/07/23 00:56:46;;;;;;;16.63;13.63;;;23.70;89.30;;;;;;4954790;29;20094;-84
2023/07/23 00:59:11;;;;;;;17.13;13.25;;;23.70;89.20;;;;;;4955046;29;20043;-84
2023/07/23 01:01:37;;;;;;;16.63;12.70;;;23.70;88.90;;;;;;4954946;29;20408;-83
2023/07/23 01:04:04;;;;;;;18.87;13.13;;;23.70;88.80;;;;;;4954829;29;20035;-84
2023/07/23 01:06:33;;;;;;;18.55;12.48;;;23.60;88.40;;;;;;4970300;28;20027;-83
2023/07/23 01:09:00;;;;;;;16.65;13.30;;;23.60;88.30;;;;;;4988434;28;20022;-83
2023/07/23 01:11:27;;;;;;;17.75;12.05;;;23.60;88.20;;;;;;4982378;28;20031;-83
2023/07/23 01:13:54;;;;;;;;;;;23.60;88.20;;;;;;4993906;28;20092;-83
2023/07/23 01:16:21;;;;;;;16.88;11.95;;;23.60;86.30;;;;;;4973143;28;19917;-84
2023/07/23 01:18:47;;;;;;;14.63;12.27;;;23.60;88.00;;;;;;4985212;28;20030;-84
2023/07/23 01:21:14;;;;;;;15.15;11.73;;;23.60;88.00;;;;;;4987185;28;20031;-83
2023/07/23 01:23:41;;;;;;;13.88;11.85;;;23.60;88.20;;;;;;4957548;28;20066;-83
2023/07/23 01:26:09;;;;;;;14.75;11.40;;;23.50;88.20;;;;;;4989961;28;20121;-83
2023/07/23 01:28:36;;;;;;;14.32;11.85;;;23.50;88.30;;;;;;4989249;28;20477;-83
2023/07/23 01:31:02;;;;;;;14.40;11.77;;;23.60;88.00;;;;;;4977920;28;20162;-84
2023/07/23 01:33:29;;;;;;;14.82;11.60;;;23.60;87.80;;;;;;4980427;28;20031;-84
2023/07/23 01:35:59;;;;;;;18.60;13.13;;;23.50;87.90;;;;;;4970171;28;20536;-84
2023/07/23 01:38:25;;;;;;;16.02;11.80;;;23.50;88.00;;;;;;4975752;28;20031;-83
2023/07/23 01:40:52;;;;;;;15.35;12.82;;;23.50;88.40;;;;;;4963292;28;20033;-83
2023/07/23 01:43:19;;;;;;;16.42;12.65;;;23.40;88.40;;;;;;4982015;28;20034;-83
2023/07/23 01:45:46;;;;;;;14.65;11.68;;;23.40;88.30;;;;;;4973384;28;20125;-83
2023/07/23 01:48:12;;;;;;;15.55;12.15;;;23.40;88.20;;;;;;4973317;28;20034;-83
2023/07/23 01:50:39;;;;;;;15.23;11.40;;;23.40;88.20;;;;;;4974581;28;20050;-83
2023/07/23 01:53:05;;;;;;;;;;;23.40;88.20;;;;;;4982073;28;20030;-84
2023/07/23 01:55:31;;;;;;;14.75;12.65;;;23.30;88.10;;;;;;4982476;28;19916;-83
2023/07/23 01:57:57;;;;;;;15.53;11.40;;;23.30;88.70;;;;;;4976955;28;20043;-84
2023/07/23 02:00:23;;;;;;;14.10;12.53;;;23.30;88.50;;;;;;4987659;28;20519;-84
2023/07/23 02:02:49;;;;;;;13.63;11.57;;;23.30;88.50;;;;;;4973125;28;20480;-84
2023/07/23 02:05:15;;;;;;;14.68;12.82;;;23.30;88.40;;;;;;4960764;28;20125;-84
2023/07/23 02:07:41;;;;;;;14.40;12.40;;;23.30;88.30;;;;;;4973034;28;20083;-84
2023/07/23 02:10:07;;;;;;;14.50;12.23;;;23.30;88.40;;;;;;4988603;28;20477;-83
2023/07/23 02:12:33;;;;;;;13.23;11.80;;;23.30;88.30;;;;;;4974104;28;20077;-83
2023/07/23 02:14:59;;;;;;;12.75;11.48;;;23.30;88.40;;;;;;4974220;28;20041;-83
2023/07/23 02:17:26;;;;;;;14.20;11.77;;;23.30;88.60;;;;;;4972820;28;20031;-83
2023/07/23 02:19:52;;;;;;;14.30;12.18;;;23.30;88.40;;;;;;4973190;28;20496;-83
2023/07/23 02:22:18;;;;;;;14.93;12.10;;;23.30;88.60;;;;;;4956999;28;20412;-83
2023/07/23 02:24:44;;;;;;;15.20;11.93;;;23.30;88.70;;;;;;4972775;28;20045;-83
2023/07/23 02:27:12;;;;;;;16.10;12.33;;;23.30;88.70;;;;;;4972333;28;20027;-83
2023/07/23 02:29:38;;;;;;;14.63;13.00;;;23.30;88.80;;;;;;4972690;28;20320;-83
2023/07/23 02:32:06;;;;;;;16.90;12.88;;;23.20;88.90;;;;;;4977799;28;20038;-83
2023/07/23 02:34:32;;;;;;;27.77;13.07;;;23.20;89.10;;;;;;4977627;28;20089;-83
2023/07/23 02:36:58;;;;;;;14.10;11.98;;;23.20;89.20;;;;;;4978948;28;20019;-84
2023/07/23 02:39:24;;;;;;;17.13;12.90;;;23.20;89.20;;;;;;4991928;28;20370;-83
2023/07/23 02:41:50;;;;;;;19.77;13.63;;;23.20;89.20;;;;;;5001680;28;20106;-84
2023/07/23 02:44:16;;;;;;;17.20;13.13;;;23.20;89.40;;;;;;4973178;28;20031;-84
2023/07/23 02:46:42;;;;;;;14.67;12.07;;;23.20;89.40;;;;;;4999485;28;20032;-83
2023/07/23 02:49:07;;;;;;;13.53;12.00;;;23.20;89.60;;;;;;4990678;28;20030;-85
2023/07/23 02:51:33;;;;;;;17.73;14.10;;;23.20;89.60;;;;;;4977967;28;20031;-83
2023/07/23 02:53:59;;;;;;;18.20;14.23;;;23.20;89.50;;;;;;4978320;28;20030;-83
2023/07/23 02:56:25;;;;;;;19.23;13.63;;;23.10;89.40;;;;;;4980308;28;20114;-84
2023/07/23 02:58:51;;;;;;;15.73;14.00;;;23.20;89.70;;;;;;4984893;28;20065;-83
2023/07/23 03:01:16;;;;;;;16.90;13.53;;;23.20;89.70;;;;;;4970306;28;20125;-83
2023/07/23 03:03:47;;;;;;;22.17;14.20;;;23.20;89.50;;;;;;4965926;28;20033;-84
2023/07/23 03:06:14;;;;;;;17.27;13.63;;;23.20;89.70;;;;;;4956969;28;20038;-83
2023/07/23 03:08:40;;;;;;;16.65;14.25;;;23.20;90.20;;;;;;4990852;28;20030;-84
2023/07/23 03:11:06;;;;;;;20.53;14.90;;;23.10;90.00;;;;;;4983156;28;20027;-84
2023/07/23 03:13:32;;;;;;;17.03;14.00;;;23.10;90.00;;;;;;4983418;28;20039;-84
2023/07/23 03:16:00;;;;;;;17.70;14.30;;;23.10;89.80;;;;;;4983620;28;20030;-85
2023/07/23 03:18:28;;;;;;;17.02;14.27;;;23.10;90.00;;;;;;4980470;28;20507;-83
2023/07/23 03:20:54;;;;;;;17.02;13.88;;;23.10;89.90;;;;;;4985278;28;20037;-83
2023/07/23 03:23:20;;;;;;;17.57;15.03;;;23.10;89.90;;;;;;4981708;28;20034;-84
2023/07/23 03:25:46;;;;;;;18.23;14.17;;;23.20;90.00;;;;;;4974595;28;20072;-83
2023/07/23 03:28:12;;;;;;;17.67;15.77;;;23.10;90.00;;;;;;4975051;28;20038;-83
2023/07/23 03:30:37;;;;;;;20.80;16.07;;;23.10;90.10;;;;;;4977469;28;20069;-83
2023/07/23 03:33:03;;;;;;;18.20;15.87;;;23.10;90.10;;;;;;4984474;28;20481;-83
2023/07/23 03:35:29;;;;;;;17.00;15.20;;;23.10;90.00;;;;;;4969179;28;20490;-83
2023/07/23 03:37:55;;;;;;;18.50;15.97;;;23.10;90.10;;;;;;4967317;28;20122;-83
2023/07/23 03:40:21;;;;;;;21.20;15.90;;;23.10;90.10;;;;;;4973817;28;20489;-83
2023/07/23 03:42:47;;;;;;;19.75;16.75;;;23.10;90.20;;;;;;4989820;28;20022;-83
2023/07/23 03:45:13;;;;;;;18.13;16.20;;;23.10;90.30;;;;;;4990185;28;20114;-83
2023/07/23 03:47:39;;;;;;;16.93;15.17;;;23.10;90.20;;;;;;4959699;28;20086;-84
2023/07/23 03:50:05;;;;;;;20.57;17.10;;;23.10;90.20;;;;;;4967737;28;20129;-84
2023/07/23 03:52:31;;;;;;;21.50;17.05;;;23.10;90.10;;;;;;4987114;28;20101;-83
2023/07/23 03:54:57;;;;;;;20.67;16.33;;;23.10;90.20;;;;;;4977641;28;20081;-83
2023/07/23 03:57:23;;;;;;;18.67;16.27;;;23.10;90.30;;;;;;4989804;28;20045;-84
2023/07/23 03:59:49;;;;;;;20.33;17.47;;;23.10;90.30;;;;;;4990622;28;20034;-83
2023/07/23 04:02:15;;;;;;;18.50;14.93;;;23.10;90.30;;;;;;4977669;28;20089;-85
2023/07/23 04:04:41;;;;;;;21.33;15.60;;;23.10;90.40;;;;;;4994956;28;20038;-83
2023/07/23 04:07:07;;;;;;;20.43;17.63;;;23.10;90.50;;;;;;4990669;28;20027;-82
2023/07/23 04:09:34;;;;;;;19.45;15.70;;;23.10;90.50;;;;;;4989391;28;20396;-87
2023/07/23 04:12:01;;;;;;;20.45;16.50;;;23.00;90.40;;;;;;4986057;28;20102;-83
2023/07/23 04:14:27;;;;;;;19.30;16.63;;;23.10;90.40;;;;;;4991727;28;20477;-83
2023/07/23 04:16:54;;;;;;;20.05;15.70;;;23.10;90.40;;;;;;4984564;28;20454;-83
2023/07/23 04:19:20;;;;;;;;;;;23.00;90.40;;;;;;4987223;28;20039;-83
2023/07/23 04:21:46;;;;;;;17.88;15.95;;;23.00;89.50;;;;;;4978751;28;19936;-83
2023/07/23 04:24:12;;;;;;;21.75;16.67;;;23.00;90.50;;;;;;4979881;28;20046;-83
2023/07/23 04:26:38;;;;;;;19.47;15.57;;;23.00;90.60;;;;;;4979643;28;20030;-83
2023/07/23 04:29:04;;;;;;;22.07;16.33;;;23.00;90.60;;;;;;4994681;28;20029;-83
2023/07/23 04:31:31;;;;;;;20.20;15.97;;;23.00;90.60;;;;;;4984176;28;20162;-83
2023/07/23 04:33:58;;;;;;;18.27;16.25;;;23.00;90.60;;;;;;4973329;28;20027;-83
2023/07/23 04:36:24;;;;;;;18.63;16.10;;;23.00;90.70;;;;;;4991957;28;20109;-84
2023/07/23 04:38:50;;;;;;;18.60;16.57;;;23.00;90.70;;;;;;4989207;28;20186;-84
2023/07/23 04:41:16;;;;;;;20.83;17.00;;;23.10;90.60;;;;;;4982168;28;20128;-83
2023/07/23 04:43:42;;;;;;;24.17;17.17;;;23.10;90.50;;;;;;4986046;28;20026;-84
2023/07/23 04:46:08;;;;;;;23.40;17.60;;;23.10;90.40;;;;;;4986229;28;20548;-83
2023/07/23 04:48:36;;;;;;;22.58;18.00;;;23.10;90.40;;;;;;4976840;28;20031;-84
2023/07/23 04:51:05;;;;;;;26.75;19.15;;;23.10;90.30;;;;;;4993534;28;20109;-84
2023/07/23 04:53:31;;;;;;;23.73;18.70;;;23.10;90.40;;;;;;4982514;28;20039;-83
2023/07/23 04:55:58;;;;;;;23.37;18.77;;;23.20;90.40;;;;;;4986863;28;20370;-83
2023/07/23 04:58:25;;;;;;;21.05;18.45;;;23.20;90.30;;;;;;4992589;28;20493;-83
2023/07/23 05:00:51;;;;;;;22.73;17.60;;;23.20;90.30;;;;;;4987681;28;20078;-83
2023/07/23 05:03:18;;;;;;;21.02;18.60;;;23.20;90.30;;;;;;4981925;28;20031;-83
2023/07/23 05:05:51;;;;;;;21.52;17.23;;;23.20;90.40;;;;;;4982006;28;20030;-84
2023/07/23 05:08:18;;;;;;;24.80;18.15;;;23.30;90.30;;;;;;4989684;28;20026;-83
2023/07/23 05:10:44;;;;;;;;;;;23.30;90.30;;;;;;4973068;28;20552;-83
2023/07/23 05:13:11;;;;;;;23.10;16.45;;;23.40;90.20;;;;;;4974282;28;19913;-83
2023/07/23 05:15:37;;;;;;;20.98;18.23;;;23.40;90.30;;;;;;4979721;28;20023;-83
2023/07/23 05:18:03;;;;;;;22.07;18.10;;;23.40;90.30;;;;;;4987514;28;20484;-83
2023/07/23 05:20:29;;;;;;;20.93;17.87;;;23.40;90.30;;;;;;4964622;28;20030;-83
2023/07/23 05:22:55;;;;;;;27.37;18.50;;;23.40;90.30;;;;;;4979037;28;20029;-83
2023/07/23 05:25:21;;;;;;;22.73;18.03;;;23.40;90.20;;;;;;4985107;28;20545;-84
2023/07/23 05:27:46;;;;;;;19.97;16.97;;;23.50;90.30;;;;;;5020802;23;20043;-80
2023/07/23 05:30:14;;;;;;;20.60;17.00;;;23.50;90.20;;;;;;4982299;28;20035;-82
2023/07/23 05:32:39;;;;;;;20.98;16.42;;;23.60;90.20;;;;;;4982488;28;20027;-81
2023/07/23 05:35:06;;;;;;;20.57;17.23;;;23.60;90.00;;;;;;4979455;28;20037;-81
2023/07/23 05:37:31;;;;;;;22.17;18.95;;;23.60;90.10;;;;;;4978047;28;20070;-81
2023/07/23 05:39:57;;;;;;;23.27;17.17;;;23.60;90.10;;;;;;4979521;28;20035;-84
2023/07/23 05:42:23;;;;;;;20.47;18.27;;;23.70;90.10;;;;;;4963057;29;20103;-83
2023/07/23 05:44:49;;;;;;;24.23;18.30;;;23.70;90.10;;;;;;4961555;28;20031;-82
2023/07/23 05:47:15;;;;;;;26.52;19.77;;;23.70;90.10;;;;;;4960230;28;20035;-82
2023/07/23 05:49:41;;;;;;;27.70;21.07;;;23.70;90.00;;;;;;4961849;29;20054;-82
2023/07/23 05:52:07;;;;;;;26.93;19.20;;;23.80;90.10;;;;;;4959971;29;20508;-83
2023/07/23 05:54:33;;;;;;;24.08;19.42;;;23.90;90.10;;;;;;4958368;29;20035;-80
2023/07/23 05:56:59;;;;;;;24.60;20.50;;;23.90;90.00;;;;;;4963642;28;20025;-81
2023/07/23 05:59:26;;;;;;;33.13;21.13;;;24.00;90.00;;;;;;4964467;29;20039;-80
2023/07/23 06:01:52;;;;;;;24.65;20.48;;;24.00;89.90;;;;;;4961688;29;20285;-81
2023/07/23 06:04:19;;;;;;;25.27;20.52;;;23.90;89.80;;;;;;4963469;28;20027;-82
2023/07/23 06:06:44;;;;;;;27.73;22.27;;;24.00;89.70;;;;;;4960729;28;20031;-81
2023/07/23 06:09:11;;;;;;;25.77;20.13;;;24.00;90.10;;;;;;4960643;29;20027;-81
2023/07/23 06:11:37;;;;;;;25.60;19.15;;;24.10;90.20;;;;;;4961951;29;20034;-82
2023/07/23 06:14:02;;;;;;;23.60;19.17;;;24.10;90.00;;;;;;4957956;29;20047;-81
2023/07/23 06:16:31;;;;;;;23.07;18.63;;;24.10;90.10;;;;;;4957854;28;20035;-79
2023/07/23 06:18:58;;;;;;;21.92;18.40;;;24.20;90.10;;;;;;4942071;29;20063;-82
2023/07/23 06:21:24;;;;;;;20.80;18.42;;;24.30;90.00;;;;;;4959207;29;20071;-80
2023/07/23 06:23:51;;;;;;;22.65;17.45;;;24.40;89.80;;;;;;4956618;28;20032;-81
2023/07/23 06:26:16;;;;;;;;;;;24.40;89.30;;;;;;4958104;28;20489;-81
2023/07/23 06:28:42;;;;;;;21.65;16.35;;;24.40;88.30;;;;;;4964390;29;19915;-82
2023/07/23 06:31:08;;;;;;;19.60;16.20;;;24.50;89.10;;;;;;4964233;29;20036;-80
2023/07/23 06:33:34;;;;;;;19.03;15.77;;;24.60;88.80;;;;;;4964916;29;20130;-81
2023/07/23 06:36:01;;;;;;;15.17;13.43;;;24.60;88.10;;;;;;4965043;28;20027;-80
2023/07/23 06:38:27;;;;;;;19.02;13.65;;;24.70;87.70;;;;;;4964784;29;20027;-81
2023/07/23 06:40:54;;;;;;;17.73;12.53;;;24.70;86.50;;;;;;4946763;29;20073;-81
2023/07/23 06:43:20;;;;;;;17.90;13.15;;;24.70;86.00;;;;;;4964334;29;20034;-81
2023/07/23 06:45:47;;;;;;;14.05;12.13;;;24.70;85.70;;;;;;4964615;28;20027;-80
2023/07/23 06:48:14;;;;;;;15.02;10.93;;;24.80;86.00;;;;;;4962787;28;20059;-82
2023/07/23 06:50:41;;;;;;;19.60;11.52;;;24.80;84.80;;;;;;4962884;29;20032;-81
2023/07/23 06:53:07;;;;;;;12.98;10.30;;;24.90;84.90;;;;;;4962988;29;20027;-80
2023/07/23 06:56:03;;;;;;;20.57;12.57;;;24.90;84.70;;;;;;4960909;29;20024;-80
2023/07/23 06:58:30;;;;;;;18.95;10.38;;;25.10;84.00;;;;;;4958959;29;20039;-82
2023/07/23 07:00:57;;;;;;;13.25;9.93;;;25.10;84.10;;;;;;4962369;29;20034;-81
2023/07/23 07:03:23;;;;;;;14.75;10.98;;;25.10;82.80;;;;;;4957607;28;20047;-82
2023/07/23 07:05:49;;;;;;;14.37;9.77;;;25.10;82.70;;;;;;4959471;29;20509;-81
2023/07/23 07:08:15;;;;;;;11.60;10.00;;;25.20;82.50;;;;;;4959707;28;20275;-82
2023/07/23 07:10:41;;;;;;;16.33;9.60;;;25.20;82.00;;;;;;4945664;29;20052;-81
2023/07/23 07:13:07;;;;;;;12.27;9.00;;;25.30;82.50;;;;;;4961536;29;20024;-81
2023/07/23 07:15:32;;;;;;;12.87;9.60;;;25.40;81.70;;;;;;4964747;29;20031;-80
2023/07/23 07:17:58;;;;;;;12.50;9.50;;;25.30;81.20;;;;;;4949956;28;20059;-82
2023/07/23 07:20:24;;;;;;;10.93;9.00;;;25.40;81.70;;;;;;4959873;29;20492;-81
2023/07/23 07:22:50;;;;;;;9.80;8.33;;;25.50;81.60;;;;;;4960735;29;20126;-82
2023/07/23 07:25:15;;;;;;;14.67;9.03;;;25.50;80.00;;;;;;4962573;29;20460;-81
2023/07/23 07:27:41;;;;;;;13.33;8.63;;;25.50;79.40;;;;;;4964396;28;20051;-82
2023/07/23 07:30:07;;;;;;;15.10;9.23;;;25.50;79.60;;;;;;4964964;29;20051;-81
2023/07/23 07:32:33;;;;;;;14.48;9.73;;;25.60;79.70;;;;;;4960783;29;20028;-81
2023/07/23 07:34:59;;;;;;;9.63;8.67;;;25.70;80.20;;;;;;4946059;29;20159;-82
2023/07/23 07:37:27;;;;;;;13.87;9.87;;;25.80;80.10;;;;;;4959823;28;20057;-81
2023/07/23 07:39:53;;;;;;;12.30;8.57;;;25.80;79.80;;;;;;4963634;28;20023;-84
2023/07/23 07:42:19;;;;;;;19.27;8.93;;;25.90;79.10;;;;;;4966879;29;20449;-81
2023/07/23 07:44:44;;;;;;;12.63;8.30;;;25.90;79.60;;;;;;4967936;28;20035;-82
2023/07/23 07:47:10;;;;;;;10.43;8.47;;;26.00;79.20;;;;;;4965266;28;20266;-81
2023/07/23 07:49:36;;;;;;;13.73;8.47;;;26.10;79.40;;;;;;4967181;28;20034;-81
2023/07/23 07:52:02;;;;;;;9.37;6.10;;;26.10;78.20;;;;;;4967253;28;20553;-81
2023/07/23 07:54:28;;;;;;;7.20;5.55;;;26.10;77.60;;;;;;4968015;28;20034;-81
2023/07/23 07:56:54;;;;;;;8.13;5.13;;;26.20;77.00;;;;;;4968412;28;20062;-81
2023/07/23 07:59:20;;;;;;;6.35;4.93;;;26.30;76.50;;;;;;4968519;28;20063;-81
2023/07/23 08:01:46;;;;;;;8.90;6.35;;;26.30;76.30;;;;;;4967948;28;20035;-81
2023/07/23 08:04:13;;;;;;;9.23;6.72;;;26.40;77.10;;;;;;4966913;29;20070;-82
2023/07/23 08:06:39;;;;;;;9.73;6.82;;;26.40;76.90;;;;;;4949923;28;20035;-82
2023/07/23 08:09:09;;;;;;;6.82;5.75;;;26.50;77.30;;;;;;4947700;29;20406;-80
2023/07/23 08:11:35;;;;;;;8.00;6.63;;;26.50;76.60;;;;;;4948580;29;20091;-81
2023/07/23 08:14:01;;;;;;;;;;;26.60;75.70;;;;;;4947938;29;20323;-82
2023/07/23 08:16:28;;;;;;;6.65;5.35;;;26.60;75.50;;;;;;4949404;29;19922;-81
2023/07/23 08:18:53;;;;;;;7.13;5.13;;;26.70;75.90;;;;;;4949229;29;20127;-82
2023/07/23 08:21:20;;;;;;;7.35;4.72;;;26.80;74.70;;;;;;4967171;29;20083;-82
2023/07/23 08:23:46;;;;;;;8.27;5.35;;;26.80;73.90;;;;;;4964167;28;20114;-80
2023/07/23 08:26:14;;;;;;;9.20;5.63;;;26.90;74.10;;;;;;4966426;28;20309;-81
2023/07/23 08:28:47;;;;;;;7.45;4.60;;;26.90;73.40;;;;;;4969350;28;20063;-79
2023/07/23 08:31:14;;;;;;;10.20;4.90;;;27.00;73.10;;;;;;4967866;29;20505;-78
2023/07/23 08:33:46;;;;;;;7.20;4.45;;;27.10;74.10;;;;;;4967746;29;20132;-80
2023/07/23 08:36:12;;;;;;;10.23;5.55;;;27.20;74.20;;;;;;4967707;28;20341;-80
2023/07/23 08:38:38;;;;;;;6.15;4.90;;;27.20;73.40;;;;;;4967018;28;20038;-79
2023/07/23 08:41:20;;;;;;;6.60;5.03;;;27.30;73.30;;;;;;4967888;28;20042;-78
2023/07/23 08:44:28;;;;;;;7.25;5.57;;;27.30;72.40;;;;;;4969658;28;20039;-79
2023/07/23 08:47:12;;;;;;;6.18;4.93;;;27.40;72.60;;;;;;4893516;29;20033;-80
2023/07/23 08:49:42;;;;;;;7.82;4.63;;;27.40;72.20;;;;;;4893979;29;20048;-80
2023/07/23 08:52:11;;;;;;;15.55;5.05;;;27.40;72.40;;;;;;4946668;28;20046;-80
2023/07/23 08:54:38;;;;;;;10.20;5.85;;;27.50;72.20;;;;;;4969478;28;20091;-80
2023/07/23 08:57:04;;;;;;;6.75;5.40;;;27.50;72.90;;;;;;4969189;28;20066;-80
2023/07/23 08:59:32;;;;;;;6.70;4.38;;;27.60;72.40;;;;;;4968704;28;20118;-78
2023/07/23 09:02:00;;;;;;;10.10;5.72;;;27.70;72.40;;;;;;4966411;29;20414;-81
2023/07/23 09:04:26;;;;;;;6.20;4.82;;;27.80;71.80;;;;;;4969338;28;20042;-81
2023/07/23 09:06:56;;;;;;;6.03;5.33;;;27.80;72.20;;;;;;4969684;28;20402;-81
2023/07/23 09:09:22;;;;;;;6.88;5.13;;;27.80;71.60;;;;;;4969770;29;20030;-81
2023/07/23 09:11:48;;;;;;;10.43;5.40;;;27.90;72.10;;;;;;4968712;29;20083;-81
2023/07/23 09:14:15;;;;;;;6.70;5.38;;;27.90;71.30;;;;;;4968807;28;20035;-81
2023/07/23 09:16:47;;;;;;;6.97;5.35;;;27.90;71.00;;;;;;4969340;28;20035;-81
2023/07/23 09:19:20;;;;;;;9.45;5.97;;;28.00;71.00;;;;;;4969355;28;20058;-81
2023/07/23 09:21:46;;;;;;;8.10;5.22;;;28.20;71.30;;;;;;4968797;28;20039;-81
2023/07/23 09:24:14;;;;;;;9.40;5.50;;;28.20;71.20;;;;;;4967798;29;20108;-81
2023/07/23 09:26:41;;;;;;;8.32;5.43;;;28.20;70.60;;;;;;4968091;28;20485;-80
2023/07/23 09:29:09;;;;;;;5.82;4.88;;;28.30;70.90;;;;;;4968292;28;20039;-81
2023/07/23 09:31:36;;;;;;;7.32;4.60;;;28.30;70.20;;;;;;4967889;29;20043;-81
2023/07/23 09:34:02;;;;;;;9.45;5.28;;;28.40;70.00;;;;;;4967861;29;20035;-81
2023/07/23 09:36:29;;;;;;;14.43;5.13;;;28.50;70.10;;;;;;4968561;28;20027;-81
2023/07/23 09:39:02;;;;;;;8.60;4.57;;;28.50;70.80;;;;;;4969919;28;20094;-80
2023/07/23 09:41:33;;;;;;;8.73;4.60;;;28.50;70.40;;;;;;4971164;28;20057;-81
2023/07/23 09:44:04;;;;;;;7.15;5.25;;;28.60;70.10;;;;;;4968797;28;20035;-80
2023/07/23 09:46:30;;;;;;;11.27;5.45;;;28.70;69.50;;;;;;4966189;28;20075;-80
2023/07/23 09:48:56;;;;;;;8.40;4.65;;;28.70;68.90;;;;;;4961439;28;20023;-80
2023/07/23 09:51:22;;;;;;;8.03;4.80;;;28.80;70.40;;;;;;4961188;29;20034;-80
2023/07/23 09:53:48;;;;;;;11.82;5.70;;;28.90;68.10;;;;;;4957468;29;20645;-81
2023/07/23 09:56:15;;;;;;;9.05;5.05;;;28.90;68.10;;;;;;4960868;28;20042;-80
2023/07/23 09:58:46;;;;;;;7.57;4.38;;;29.00;67.60;;;;;;4959969;28;20569;-81
2023/07/23 10:01:13;;;;;;;10.48;4.88;;;28.80;68.50;;;;;;4958388;29;20090;-81
2023/07/23 10:03:39;;;;;;;7.22;5.85;;;28.80;68.70;;;;;;4958629;29;20031;-80
2023/07/23 10:06:11;;;;;;;7.95;4.05;;;28.70;69.50;;;;;;4959526;28;20024;-81
2023/07/23 10:08:41;;;;;;;13.05;5.97;;;28.70;69.30;;;;;;4958749;29;20036;-79
2023/07/23 10:11:07;;;;;;;6.93;5.05;;;28.80;68.40;;;;;;4960811;28;20035;-81
2023/07/23 10:13:33;;;;;;;7.53;4.63;;;28.90;68.70;;;;;;4960933;28;20039;-80
2023/07/23 10:16:00;;;;;;;8.20;5.13;;;29.10;68.60;;;;;;4961416;28;20030;-79
2023/07/23 10:18:28;;;;;;;8.80;5.03;;;29.20;69.00;;;;;;4961765;28;20274;-80
2023/07/23 10:20:55;;;;;;;7.10;4.43;;;29.30;67.20;;;;;;4958953;29;20070;-80
2023/07/23 10:23:23;;;;;;;9.20;5.20;;;29.20;68.00;;;;;;4959874;28;20107;-80
2023/07/23 10:25:48;;;;;;;7.30;6.03;;;29.20;68.70;;;;;;4942022;29;20054;-80
2023/07/23 10:28:22;;;;;;;6.50;5.03;;;29.20;67.60;;;;;;4958116;28;20506;-87
2023/07/23 10:31:18;;;;;;;9.27;5.18;;;29.20;67.20;;;;;;4950473;28;20039;-81
2023/07/23 10:33:45;;;;;;;10.77;5.22;;;29.30;67.80;;;;;;4960610;29;20035;-80
2023/07/23 10:36:11;;;;;;;10.68;5.82;;;29.40;67.70;;;;;;4956546;29;20028;-80
2023/07/23 10:38:38;;;;;;;9.90;5.55;;;29.40;67.60;;;;;;4959470;29;20486;-81
2023/07/23 10:41:04;;;;;;;8.70;5.45;;;29.40;66.40;;;;;;4961503;29;20294;-81
2023/07/23 10:43:56;;;;;;;9.43;4.95;;;29.40;66.10;;;;;;4961307;29;20046;-81
2023/07/23 10:46:22;;;;;;;10.23;5.60;;;29.60;66.50;;;;;;4958698;28;20039;-80
2023/07/23 10:48:55;;;;;;;10.00;5.68;;;29.60;66.70;;;;;;4960823;28;20069;-80
2023/07/23 10:51:22;;;;;;;9.05;4.75;;;29.50;66.10;;;;;;4960637;28;20027;-80
2023/07/23 10:54:02;;;;;;;6.75;4.95;;;29.60;66.00;;;;;;4960557;29;20026;-81
2023/07/23 10:56:31;;;;;;;9.77;5.32;;;29.70;65.40;;;;;;4942570;29;20039;-82
2023/07/23 10:59:06;;;;;;;10.25;5.13;;;29.70;66.90;;;;;;4964161;28;20027;-80
2023/07/23 11:01:38;;;;;;;9.02;5.18;;;29.80;67.20;;;;;;4958701;29;20494;-81
2023/07/23 11:04:15;;;;;;;9.40;5.00;;;29.90;65.50;;;;;;4959371;29;20094;-82
2023/07/23 11:06:57;;;;;;;8.10;4.72;;;30.10;64.50;;;;;;4958594;28;20082;-80
2023/07/23 11:09:26;;;;;;;6.55;4.57;;;30.10;63.30;;;;;;4957238;29;20036;-80
2023/07/23 11:11:52;;;;;;;7.05;5.03;;;30.20;64.30;;;;;;4955497;29;20019;-81
2023/07/23 11:14:24;;;;;;;8.77;5.55;;;30.30;64.90;;;;;;4958628;28;20027;-81
2023/07/23 11:16:52;;;;;;;7.38;4.85;;;30.40;63.90;;;;;;4971700;28;20055;-81
2023/07/23 11:19:20;;;;;;;7.75;5.22;;;30.50;63.40;;;;;;4959964;29;20038;-81
2023/07/23 11:21:51;;;;;;;10.52;5.07;;;30.60;63.20;;;;;;4957652;29;20039;-82
2023/07/23 11:24:19;;;;;;;5.88;4.50;;;30.70;62.50;;;;;;4970894;28;20395;-82
2023/07/23 11:36:23;;;;;;;7.60;4.65;;;31.10;61.60;;;;;;5949458;23;20066;-83
2023/07/23 11:38:58;;;;;;;8.05;4.63;;;31.20;61.50;;;;;;4971602;28;20532;-82
2023/07/23 11:41:29;;;;;;;10.13;4.65;;;31.30;62.60;;;;;;4963557;28;20034;-82
2023/07/23 11:43:57;;;;;;;9.25;4.40;;;31.40;62.20;;;;;;4972238;28;20039;-82
2023/07/23 11:46:24;;;;;;;6.10;4.70;;;31.50;60.40;;;;;;4972956;28;20029;-83
2023/07/23 11:48:54;;;;;;;10.52;5.80;;;31.40;60.90;;;;;;4973338;28;20392;-84
2023/07/23 11:51:21;;;;;;;6.55;4.50;;;31.50;58.70;;;;;;4958588;28;20031;-85
2023/07/23 11:53:52;;;;;;;5.75;4.40;;;31.60;58.50;;;;;;4972413;28;20031;-85
2023/07/23 11:56:22;;;;;;;6.60;4.75;;;31.50;56.50;;;;;;4955116;28;20042;-83
2023/07/23 11:58:47;;;;;;;8.45;4.90;;;31.60;58.80;;;;;;4970754;28;20030;-84
2023/07/23 12:01:14;;;;;;;8.18;4.47;;;31.70;58.80;;;;;;4973427;28;20038;-83
2023/07/23 12:03:41;;;;;;;;;;;31.80;56.70;;;;;;4968982;28;20093;-83
2023/07/23 12:06:08;;;;;;;5.40;4.70;;;31.50;54.70;;;;;;4971299;28;19913;-83
2023/07/23 12:08:35;;;;;;;7.22;4.40;;;31.50;55.20;;;;;;4971396;28;20035;-83
2023/07/23 12:11:12;;;;;;;7.45;5.28;;;31.60;56.60;;;;;;4953713;28;20490;-83
2023/07/23 12:13:42;;;;;;;7.28;4.75;;;31.60;55.70;;;;;;4952733;29;20035;-84
2023/07/23 12:16:35;;;;;;;8.32;5.53;;;31.70;57.10;;;;;;4955655;28;20039;-83
2023/07/23 12:19:09;;;;;;;7.40;5.00;;;32.00;58.50;;;;;;4972645;28;20097;-83
2023/07/23 12:21:38;;;;;;;11.40;6.07;;;32.00;56.10;;;;;;4972480;28;20507;-83
2023/07/23 12:24:16;;;;;;;8.63;4.53;;;32.10;54.30;;;;;;4974280;28;20528;-84
2023/07/23 12:26:43;;;;;;;7.00;5.32;;;32.20;55.40;;;;;;4970668;28;20126;-84
2023/07/23 12:29:09;;;;;;;8.32;5.25;;;32.30;54.90;;;;;;4970081;28;20022;-83
2023/07/23 12:31:40;;;;;;;11.25;6.10;;;32.50;55.30;;;;;;4976889;28;20094;-83
2023/07/23 12:34:05;;;;;;;7.45;5.05;;;32.50;53.50;;;;;;4973680;28;20386;-83
2023/07/23 12:36:31;;;;;;;9.63;4.93;;;32.40;53.40;;;;;;4975734;28;20033;-83
2023/07/23 12:38:57;;;;;;;7.20;4.70;;;32.40;52.90;;;;;;4976245;28;20027;-84
2023/07/23 12:41:23;;;;;;;9.88;5.75;;;32.40;52.80;;;;;;4974742;28;20027;-83
2023/07/23 12:43:49;;;;;;;8.93;5.30;;;32.60;53.30;;;;;;4974651;28;20125;-83
2023/07/23 12:46:15;;;;;;;11.57;5.68;;;32.60;51.70;;;;;;4975440;28;20051;-83